sensor_id;sensor_type;location;lat;lon;timestamp;temperature;humidity
61672;DHT22;47572;0.00000000;0.00000000;2022-10-19T00:01:52;19.70;73.00
61672;DHT22;47572;0.00000000;0.00000000;2022-10-19T00:04:17;19.70;73.10
61672;DHT22;47572;0.00000000;0.00000000;2022-10-19T00:06:43;19.70;73.00
61672;DHT22;47572;0.00000000;0.00000000;2022-10-19T00:09:13;19.70;73.00
61672;DHT22;47572;0.00000000;0.00000000;2022-10-19T00:11:41;19.70;73.00
61672;DHT22;47572;0.00000000;0.00000000;2022-10-19T00:14:09;19.70;73.00
61672;DHT22;47572;0.00000000;0.00000000;2022-10-19T00:16:35;19.70;73.00
61672;DHT22;47572;0.00000000;0.00000000;2022-10-19T00:19:03;19.70;73.10
61672;DHT22;47572;0.00000000;0.00000000;2022-10-19T00:21:29;19.70;73.10
61672;DHT22;47572;0.00000000;0.00000000;2022-10-19T00:23:55;19.70;73.10
61672;DHT22;47572;0.00000000;0.00000000;2022-10-19T00:26:20;19.70;73.10
61672;DHT22;47572;0.00000000;0.00000000;2022-10-19T00:28:46;19.60;73.00
61672;DHT22;47572;0.00000000;0.00000000;2022-10-19T00:31:14;19.70;73.10
61672;DHT22;47572;0.00000000;0.00000000;2022-10-19T00:33:41;19.60;73.00
61672;DHT22;47572;0.00000000;0.00000000;2022-10-19T00:36:13;19.60;73.00
61672;DHT22;47572;0.00000000;0.00000000;2022-10-19T00:38:40;19.60;73.00
61672;DHT22;47572;0.00000000;0.00000000;2022-10-19T00:41:06;19.60;73.00
61672;DHT22;47572;0.00000000;0.00000000;2022-10-19T00:43:48;19.60;73.10
61672;DHT22;47572;0.00000000;0.00000000;2022-10-19T00:46:14;19.60;73.10
61672;DHT22;47572;0.00000000;0.00000000;2022-10-19T00:48:40;19.60;73.00
61672;DHT22;47572;0.00000000;0.00000000;2022-10-19T00:51:06;19.60;73.10
61672;DHT22;47572;0.00000000;0.00000000;2022-10-19T00:53:31;19.60;73.00
61672;DHT22;47572;0.00000000;0.00000000;2022-10-19T00:55:58;19.60;73.00
61672;DHT22;47572;0.00000000;0.00000000;2022-10-19T00:58:25;19.60;73.10
61672;DHT22;47572;0.00000000;0.00000000;2022-10-19T01:00:51;19.60;73.10
61672;DHT22;47572;0.00000000;0.00000000;2022-10-19T01:03:17;19.60;73.10
61672;DHT22;47572;0.00000000;0.00000000;2022-10-19T01:05:43;19.60;73.10
61672;DHT22;47572;0.00000000;0.00000000;2022-10-19T01:08:08;19.60;73.10
61672;DHT22;47572;0.00000000;0.00000000;2022-10-19T01:13:18;19.50;73.10
61672;DHT22;47572;0.00000000;0.00000000;2022-10-19T01:15:53;19.60;73.10
61672;DHT22;47572;0.00000000;0.00000000;2022-10-19T01:18:20;19.60;73.10
61672;DHT22;47572;0.00000000;0.00000000;2022-10-19T01:34:00;19.50;73.00
61672;DHT22;47572;0.00000000;0.00000000;2022-10-19T01:39:10;19.50;73.10
61672;DHT22;47572;0.00000000;0.00000000;2022-10-19T01:41:44;19.50;73.10
61672;DHT22;47572;0.00000000;0.00000000;2022-10-19T01:44:16;19.50;73.10
61672;DHT22;47572;0.00000000;0.00000000;2022-10-19T01:46:46;19.50;73.10
61672;DHT22;47572;0.00000000;0.00000000;2022-10-19T01:49:37;19.40;73.00
61672;DHT22;47572;0.00000000;0.00000000;2022-10-19T01:52:02;19.50;73.10
61672;DHT22;47572;0.00000000;0.00000000;2022-10-19T01:54:29;19.40;73.10
61672;DHT22;47572;0.00000000;0.00000000;2022-10-19T01:56:57;19.40;73.00
61672;DHT22;47572;0.00000000;0.00000000;2022-10-19T01:59:24;19.40;73.10
61672;DHT22;47572;0.00000000;0.00000000;2022-10-19T02:01:50;19.40;73.00
61672;DHT22;47572;0.00000000;0.00000000;2022-10-19T02:04:18;19.40;73.00
61672;DHT22;47572;0.00000000;0.00000000;2022-10-19T02:06:44;19.40;73.00
61672;DHT22;47572;0.00000000;0.00000000;2022-10-19T02:09:10;19.40;73.00
61672;DHT22;47572;0.00000000;0.00000000;2022-10-19T02:11:43;19.40;73.10
61672;DHT22;47572;0.00000000;0.00000000;2022-10-19T02:14:11;19.40;73.00
61672;DHT22;47572;0.00000000;0.00000000;2022-10-19T02:17:01;19.40;73.00
61672;DHT22;47572;0.00000000;0.00000000;2022-10-19T02:19:24;19.40;73.00
61672;DHT22;47572;0.00000000;0.00000000;2022-10-19T02:21:50;19.40;73.00
61672;DHT22;47572;0.00000000;0.00000000;2022-10-19T02:24:16;19.40;73.00
61672;DHT22;47572;0.00000000;0.00000000;2022-10-19T02:26:41;19.40;73.00
61672;DHT22;47572;0.00000000;0.00000000;2022-10-19T02:29:07;19.40;73.00
61672;DHT22;47572;0.00000000;0.00000000;2022-10-19T02:31:34;19.40;73.00
61672;DHT22;47572;0.00000000;0.00000000;2022-10-19T02:34:00;19.40;73.00
61672;DHT22;47572;0.00000000;0.00000000;2022-10-19T02:36:26;19.40;73.00
61672;DHT22;47572;0.00000000;0.00000000;2022-10-19T02:38:52;19.30;73.00
61672;DHT22;47572;0.00000000;0.00000000;2022-10-19T02:44:04;19.40;73.00
61672;DHT22;47572;0.00000000;0.00000000;2022-10-19T02:46:34;19.30;73.00
61672;DHT22;47572;0.00000000;0.00000000;2022-10-19T02:49:00;19.30;73.00
61672;DHT22;47572;0.00000000;0.00000000;2022-10-19T02:51:34;19.30;73.00
61672;DHT22;47572;0.00000000;0.00000000;2022-10-19T02:54:00;19.30;73.00
61672;DHT22;47572;0.00000000;0.00000000;2022-10-19T02:56:26;19.30;72.90
61672;DHT22;47572;0.00000000;0.00000000;2022-10-19T02:58:52;19.30;73.00
61672;DHT22;47572;0.00000000;0.00000000;2022-10-19T03:01:17;19.30;73.00
61672;DHT22;47572;0.00000000;0.00000000;2022-10-19T03:03:43;19.30;72.90
61672;DHT22;47572;0.00000000;0.00000000;2022-10-19T03:06:09;19.30;73.00
61672;DHT22;47572;0.00000000;0.00000000;2022-10-19T03:08:35;19.30;73.00
61672;DHT22;47572;0.00000000;0.00000000;2022-10-19T03:11:00;19.30;72.90
61672;DHT22;47572;0.00000000;0.00000000;2022-10-19T03:13:26;19.30;72.90
61672;DHT22;47572;0.00000000;0.00000000;2022-10-19T03:15:52;19.30;72.90
61672;DHT22;47572;0.00000000;0.00000000;2022-10-19T03:18:17;19.20;72.90
61672;DHT22;47572;0.00000000;0.00000000;2022-10-19T03:20:43;19.30;72.90
61672;DHT22;47572;0.00000000;0.00000000;2022-10-19T03:23:09;19.30;72.90
61672;DHT22;47572;0.00000000;0.00000000;2022-10-19T03:25:34;19.20;72.80
61672;DHT22;47572;0.00000000;0.00000000;2022-10-19T03:28:00;19.20;72.80
61672;DHT22;47572;0.00000000;0.00000000;2022-10-19T03:30:26;19.20;72.80
61672;DHT22;47572;0.00000000;0.00000000;2022-10-19T03:32:51;19.20;72.80
61672;DHT22;47572;0.00000000;0.00000000;2022-10-19T03:35:17;19.20;72.80
61672;DHT22;47572;0.00000000;0.00000000;2022-10-19T03:37:43;19.30;72.90
61672;DHT22;47572;0.00000000;0.00000000;2022-10-19T03:40:08;19.20;72.80
61672;DHT22;47572;0.00000000;0.00000000;2022-10-19T03:42:34;19.30;72.90
61672;DHT22;47572;0.00000000;0.00000000;2022-10-19T03:45:01;19.20;72.80
61672;DHT22;47572;0.00000000;0.00000000;2022-10-19T03:47:27;19.20;72.80
61672;DHT22;47572;0.00000000;0.00000000;2022-10-19T03:49:52;19.20;72.80
61672;DHT22;47572;0.00000000;0.00000000;2022-10-19T03:52:18;19.20;73.60
61672;DHT22;47572;0.00000000;0.00000000;2022-10-19T03:54:44;19.20;72.80
61672;DHT22;47572;0.00000000;0.00000000;2022-10-19T03:57:10;19.20;72.80
61672;DHT22;47572;0.00000000;0.00000000;2022-10-19T03:59:36;19.20;72.80
61672;DHT22;47572;0.00000000;0.00000000;2022-10-19T04:02:02;19.20;72.70
61672;DHT22;47572;0.00000000;0.00000000;2022-10-19T04:04:28;19.20;72.80
61672;DHT22;47572;0.00000000;0.00000000;2022-10-19T04:06:54;19.20;72.70
61672;DHT22;47572;0.00000000;0.00000000;2022-10-19T04:09:20;19.20;72.70
61672;DHT22;47572;0.00000000;0.00000000;2022-10-19T04:11:46;19.20;72.70
61672;DHT22;47572;0.00000000;0.00000000;2022-10-19T04:14:13;19.20;72.70
61672;DHT22;47572;0.00000000;0.00000000;2022-10-19T04:16:42;19.10;72.60
61672;DHT22;47572;0.00000000;0.00000000;2022-10-19T04:19:07;19.20;72.70
61672;DHT22;47572;0.00000000;0.00000000;2022-10-19T04:21:37;19.10;72.70
61672;DHT22;47572;0.00000000;0.00000000;2022-10-19T04:24:04;19.20;72.70
61672;DHT22;47572;0.00000000;0.00000000;2022-10-19T04:26:30;19.10;72.60
61672;DHT22;47572;0.00000000;0.00000000;2022-10-19T04:28:59;19.20;72.60
61672;DHT22;47572;0.00000000;0.00000000;2022-10-19T04:31:26;19.10;72.60
61672;DHT22;47572;0.00000000;0.00000000;2022-10-19T04:33:52;19.10;72.60
61672;DHT22;47572;0.00000000;0.00000000;2022-10-19T04:36:18;19.10;72.60
61672;DHT22;47572;0.00000000;0.00000000;2022-10-19T04:38:44;19.10;72.60
61672;DHT22;47572;0.00000000;0.00000000;2022-10-19T04:41:10;19.10;72.60
61672;DHT22;47572;0.00000000;0.00000000;2022-10-19T04:43:37;19.10;72.60
61672;DHT22;47572;0.00000000;0.00000000;2022-10-19T04:46:08;19.10;72.60
61672;DHT22;47572;0.00000000;0.00000000;2022-10-19T04:48:35;19.10;72.60
61672;DHT22;47572;0.00000000;0.00000000;2022-10-19T04:51:01;19.10;72.60
61672;DHT22;47572;0.00000000;0.00000000;2022-10-19T04:53:26;19.10;72.60
61672;DHT22;47572;0.00000000;0.00000000;2022-10-19T04:55:52;19.10;72.60
61672;DHT22;47572;0.00000000;0.00000000;2022-10-19T04:58:18;19.10;72.60
61672;DHT22;47572;0.00000000;0.00000000;2022-10-19T05:00:44;19.10;72.60
61672;DHT22;47572;0.00000000;0.00000000;2022-10-19T05:03:10;19.10;72.60
61672;DHT22;47572;0.00000000;0.00000000;2022-10-19T05:05:35;19.10;72.60
61672;DHT22;47572;0.00000000;0.00000000;2022-10-19T05:08:01;19.10;72.60
61672;DHT22;47572;0.00000000;0.00000000;2022-10-19T05:10:27;19.00;72.50
61672;DHT22;47572;0.00000000;0.00000000;2022-10-19T05:12:53;19.00;72.60
61672;DHT22;47572;0.00000000;0.00000000;2022-10-19T05:15:18;19.10;72.60
61672;DHT22;47572;0.00000000;0.00000000;2022-10-19T05:17:44;19.00;72.60
61672;DHT22;47572;0.00000000;0.00000000;2022-10-19T05:20:10;19.00;72.50
61672;DHT22;47572;0.00000000;0.00000000;2022-10-19T05:22:37;19.00;72.60
61672;DHT22;47572;0.00000000;0.00000000;2022-10-19T05:25:03;19.00;72.50
61672;DHT22;47572;0.00000000;0.00000000;2022-10-19T05:27:28;19.00;72.60
61672;DHT22;47572;0.00000000;0.00000000;2022-10-19T05:29:54;19.00;72.50
61672;DHT22;47572;0.00000000;0.00000000;2022-10-19T05:32:20;19.00;72.50
61672;DHT22;47572;0.00000000;0.00000000;2022-10-19T05:34:45;19.00;72.50
61672;DHT22;47572;0.00000000;0.00000000;2022-10-19T05:37:11;19.00;72.50
61672;DHT22;47572;0.00000000;0.00000000;2022-10-19T05:39:37;19.00;72.60
61672;DHT22;47572;0.00000000;0.00000000;2022-10-19T05:42:03;19.00;72.50
61672;DHT22;47572;0.00000000;0.00000000;2022-10-19T05:44:28;19.00;72.50
61672;DHT22;47572;0.00000000;0.00000000;2022-10-19T05:46:55;19.00;72.50
61672;DHT22;47572;0.00000000;0.00000000;2022-10-19T05:49:21;19.00;72.50
61672;DHT22;47572;0.00000000;0.00000000;2022-10-19T05:51:47;19.00;72.50
61672;DHT22;47572;0.00000000;0.00000000;2022-10-19T05:54:13;19.00;72.50
61672;DHT22;47572;0.00000000;0.00000000;2022-10-19T05:56:39;18.90;72.40
61672;DHT22;47572;0.00000000;0.00000000;2022-10-19T05:59:06;19.00;72.50
61672;DHT22;47572;0.00000000;0.00000000;2022-10-19T06:01:31;19.00;72.50
61672;DHT22;47572;0.00000000;0.00000000;2022-10-19T06:03:58;18.90;72.50
61672;DHT22;47572;0.00000000;0.00000000;2022-10-19T06:06:24;19.00;72.50
61672;DHT22;47572;0.00000000;0.00000000;2022-10-19T06:08:51;19.00;72.50
61672;DHT22;47572;0.00000000;0.00000000;2022-10-19T06:11:18;18.90;72.50
61672;DHT22;47572;0.00000000;0.00000000;2022-10-19T06:13:44;19.00;72.50
61672;DHT22;47572;0.00000000;0.00000000;2022-10-19T06:16:11;19.00;72.50
61672;DHT22;47572;0.00000000;0.00000000;2022-10-19T06:18:37;19.00;72.50
61672;DHT22;47572;0.00000000;0.00000000;2022-10-19T06:21:05;19.00;72.50
61672;DHT22;47572;0.00000000;0.00000000;2022-10-19T06:23:31;18.90;72.40
61672;DHT22;47572;0.00000000;0.00000000;2022-10-19T06:25:57;18.90;72.40
61672;DHT22;47572;0.00000000;0.00000000;2022-10-19T06:28:23;18.90;72.40
61672;DHT22;47572;0.00000000;0.00000000;2022-10-19T06:30:49;18.90;72.40
61672;DHT22;47572;0.00000000;0.00000000;2022-10-19T06:33:14;18.90;72.30
61672;DHT22;47572;0.00000000;0.00000000;2022-10-19T06:35:40;18.90;72.00
61672;DHT22;47572;0.00000000;0.00000000;2022-10-19T06:38:07;18.90;71.70
61672;DHT22;47572;0.00000000;0.00000000;2022-10-19T06:40:34;18.90;70.90
61672;DHT22;47572;0.00000000;0.00000000;2022-10-19T06:43:00;18.90;71.20
61672;DHT22;47572;0.00000000;0.00000000;2022-10-19T06:45:26;18.90;71.30
61672;DHT22;47572;0.00000000;0.00000000;2022-10-19T06:47:52;18.90;72.60
61672;DHT22;47572;0.00000000;0.00000000;2022-10-19T06:50:18;18.90;71.80
61672;DHT22;47572;0.00000000;0.00000000;2022-10-19T06:52:45;18.90;71.90
61672;DHT22;47572;0.00000000;0.00000000;2022-10-19T06:55:11;18.90;72.00
61672;DHT22;47572;0.00000000;0.00000000;2022-10-19T06:57:36;18.90;72.10
61672;DHT22;47572;0.00000000;0.00000000;2022-10-19T07:00:03;18.90;72.20
61672;DHT22;47572;0.00000000;0.00000000;2022-10-19T07:02:29;18.90;72.30
61672;DHT22;47572;0.00000000;0.00000000;2022-10-19T07:04:54;18.90;72.40
61672;DHT22;47572;0.00000000;0.00000000;2022-10-19T07:07:20;18.90;72.30
61672;DHT22;47572;0.00000000;0.00000000;2022-10-19T07:09:46;18.90;72.30
61672;DHT22;47572;0.00000000;0.00000000;2022-10-19T07:12:12;18.80;72.10
61672;DHT22;47572;0.00000000;0.00000000;2022-10-19T07:14:38;18.90;72.30
61672;DHT22;47572;0.00000000;0.00000000;2022-10-19T07:17:05;18.90;72.30
61672;DHT22;47572;0.00000000;0.00000000;2022-10-19T07:19:30;18.90;72.30
61672;DHT22;47572;0.00000000;0.00000000;2022-10-19T07:21:56;18.90;72.30
61672;DHT22;47572;0.00000000;0.00000000;2022-10-19T07:24:22;18.90;72.30
61672;DHT22;47572;0.00000000;0.00000000;2022-10-19T07:26:48;18.90;72.30
61672;DHT22;47572;0.00000000;0.00000000;2022-10-19T07:29:14;18.80;72.20
61672;DHT22;47572;0.00000000;0.00000000;2022-10-19T07:31:40;18.90;72.30
61672;DHT22;47572;0.00000000;0.00000000;2022-10-19T07:34:06;18.90;72.30
61672;DHT22;47572;0.00000000;0.00000000;2022-10-19T07:36:32;18.90;72.30
61672;DHT22;47572;0.00000000;0.00000000;2022-10-19T07:39:02;18.80;72.30
61672;DHT22;47572;0.00000000;0.00000000;2022-10-19T07:41:30;18.90;72.30
61672;DHT22;47572;0.00000000;0.00000000;2022-10-19T07:43:56;18.90;72.40
61672;DHT22;47572;0.00000000;0.00000000;2022-10-19T07:46:24;18.80;72.40
61672;DHT22;47572;0.00000000;0.00000000;2022-10-19T07:48:50;18.80;72.40
61672;DHT22;47572;0.00000000;0.00000000;2022-10-19T07:51:17;18.80;72.30
61672;DHT22;47572;0.00000000;0.00000000;2022-10-19T07:53:43;18.80;72.40
61672;DHT22;47572;0.00000000;0.00000000;2022-10-19T07:56:13;18.90;72.40
61672;DHT22;47572;0.00000000;0.00000000;2022-10-19T07:58:39;18.90;72.50
61672;DHT22;47572;0.00000000;0.00000000;2022-10-19T08:01:06;18.90;72.80
61672;DHT22;47572;0.00000000;0.00000000;2022-10-19T08:03:32;18.90;73.00
61672;DHT22;47572;0.00000000;0.00000000;2022-10-19T08:05:59;18.90;73.00
61672;DHT22;47572;0.00000000;0.00000000;2022-10-19T08:08:25;18.80;72.90
61672;DHT22;47572;0.00000000;0.00000000;2022-10-19T08:10:50;18.90;73.20
61672;DHT22;47572;0.00000000;0.00000000;2022-10-19T08:13:16;18.90;73.30
61672;DHT22;47572;0.00000000;0.00000000;2022-10-19T08:15:42;18.90;73.50
61672;DHT22;47572;0.00000000;0.00000000;2022-10-19T08:18:08;18.90;73.40
61672;DHT22;47572;0.00000000;0.00000000;2022-10-19T08:20:34;18.90;73.50
61672;DHT22;47572;0.00000000;0.00000000;2022-10-19T08:23:00;18.90;73.40
61672;DHT22;47572;0.00000000;0.00000000;2022-10-19T08:25:28;19.00;73.40
61672;DHT22;47572;0.00000000;0.00000000;2022-10-19T08:27:54;19.10;72.90
61672;DHT22;47572;0.00000000;0.00000000;2022-10-19T08:30:20;19.20;72.60
61672;DHT22;47572;0.00000000;0.00000000;2022-10-19T08:32:46;19.30;72.30
61672;DHT22;47572;0.00000000;0.00000000;2022-10-19T08:35:12;19.40;72.10
61672;DHT22;47572;0.00000000;0.00000000;2022-10-19T08:37:39;19.60;71.90
61672;DHT22;47572;0.00000000;0.00000000;2022-10-19T08:40:05;19.70;71.60
61672;DHT22;47572;0.00000000;0.00000000;2022-10-19T08:42:49;19.80;71.20
61672;DHT22;47572;0.00000000;0.00000000;2022-10-19T08:50:30;20.20;70.40
61672;DHT22;47572;0.00000000;0.00000000;2022-10-19T08:53:00;20.20;70.10
61672;DHT22;47572;0.00000000;0.00000000;2022-10-19T08:55:29;20.30;69.80
61672;DHT22;47572;0.00000000;0.00000000;2022-10-19T08:58:01;20.30;69.50
61672;DHT22;47572;0.00000000;0.00000000;2022-10-19T09:03:02;20.40;69.30
61672;DHT22;47572;0.00000000;0.00000000;2022-10-19T09:08:06;20.50;69.10
61672;DHT22;47572;0.00000000;0.00000000;2022-10-19T09:10:34;20.50;68.90
61672;DHT22;47572;0.00000000;0.00000000;2022-10-19T09:13:02;20.60;68.80
61672;DHT22;47572;0.00000000;0.00000000;2022-10-19T09:17:59;20.70;68.40
61672;DHT22;47572;0.00000000;0.00000000;2022-10-19T09:20:25;20.80;68.40
61672;DHT22;47572;0.00000000;0.00000000;2022-10-19T09:23:00;20.80;68.20
61672;DHT22;47572;0.00000000;0.00000000;2022-10-19T09:25:27;20.90;68.00
61672;DHT22;47572;0.00000000;0.00000000;2022-10-19T09:30:55;21.00;67.80
61672;DHT22;47572;0.00000000;0.00000000;2022-10-19T09:33:25;21.00;67.60
61672;DHT22;47572;0.00000000;0.00000000;2022-10-19T09:35:51;21.10;67.60
61672;DHT22;47572;0.00000000;0.00000000;2022-10-19T09:38:18;21.10;67.50
61672;DHT22;47572;0.00000000;0.00000000;2022-10-19T09:40:45;21.10;67.40
61672;DHT22;47572;0.00000000;0.00000000;2022-10-19T09:43:10;21.10;67.30
61672;DHT22;47572;0.00000000;0.00000000;2022-10-19T09:46:08;21.20;67.30
61672;DHT22;47572;0.00000000;0.00000000;2022-10-19T09:48:40;21.20;67.20
61672;DHT22;47572;0.00000000;0.00000000;2022-10-19T09:51:10;21.20;67.10
61672;DHT22;47572;0.00000000;0.00000000;2022-10-19T09:53:36;21.20;67.00
61672;DHT22;47572;0.00000000;0.00000000;2022-10-19T09:56:03;21.30;67.00
61672;DHT22;47572;0.00000000;0.00000000;2022-10-19T09:58:31;21.30;66.90
61672;DHT22;47572;0.00000000;0.00000000;2022-10-19T10:00:57;21.30;66.90
61672;DHT22;47572;0.00000000;0.00000000;2022-10-19T10:05:51;21.30;66.80
61672;DHT22;47572;0.00000000;0.00000000;2022-10-19T10:08:19;21.40;66.80
61672;DHT22;47572;0.00000000;0.00000000;2022-10-19T10:10:53;21.40;66.80
61672;DHT22;47572;0.00000000;0.00000000;2022-10-19T10:13:22;21.40;66.70
61672;DHT22;47572;0.00000000;0.00000000;2022-10-19T10:15:58;21.40;66.50
61672;DHT22;47572;0.00000000;0.00000000;2022-10-19T10:18:25;21.40;66.40
61672;DHT22;47572;0.00000000;0.00000000;2022-10-19T10:20:55;21.40;66.20
61672;DHT22;47572;0.00000000;0.00000000;2022-10-19T10:23:22;21.40;66.00
61672;DHT22;47572;0.00000000;0.00000000;2022-10-19T10:25:49;21.50;66.10
61672;DHT22;47572;0.00000000;0.00000000;2022-10-19T10:28:19;21.40;65.90
61672;DHT22;47572;0.00000000;0.00000000;2022-10-19T10:30:46;21.50;65.90
61672;DHT22;47572;0.00000000;0.00000000;2022-10-19T10:33:15;21.50;65.70
61672;DHT22;47572;0.00000000;0.00000000;2022-10-19T10:35:45;21.60;65.90
61672;DHT22;47572;0.00000000;0.00000000;2022-10-19T10:38:13;21.60;65.80
61672;DHT22;47572;0.00000000;0.00000000;2022-10-19T10:40:40;21.60;65.70
61672;DHT22;47572;0.00000000;0.00000000;2022-10-19T10:43:14;21.70;65.70
61672;DHT22;47572;0.00000000;0.00000000;2022-10-19T10:45:46;21.70;65.60
61672;DHT22;47572;0.00000000;0.00000000;2022-10-19T10:50:38;21.80;65.60
61672;DHT22;47572;0.00000000;0.00000000;2022-10-19T10:53:05;21.80;65.50
61672;DHT22;47572;0.00000000;0.00000000;2022-10-19T10:55:32;21.80;65.60
61672;DHT22;47572;0.00000000;0.00000000;2022-10-19T10:58:13;21.80;65.60
61672;DHT22;47572;0.00000000;0.00000000;2022-10-19T11:00:39;21.90;65.60
61672;DHT22;47572;0.00000000;0.00000000;2022-10-19T11:03:17;21.90;65.60
61672;DHT22;47572;0.00000000;0.00000000;2022-10-19T11:05:45;21.90;65.60
61672;DHT22;47572;0.00000000;0.00000000;2022-10-19T11:11:18;21.90;65.60
61672;DHT22;47572;0.00000000;0.00000000;2022-10-19T11:16:15;21.90;65.80
61672;DHT22;47572;0.00000000;0.00000000;2022-10-19T11:18:43;21.90;65.80
61672;DHT22;47572;0.00000000;0.00000000;2022-10-19T11:23:39;21.70;66.10
61672;DHT22;47572;0.00000000;0.00000000;2022-10-19T11:28:47;21.60;66.40
61672;DHT22;47572;0.00000000;0.00000000;2022-10-19T11:31:17;21.50;66.50
61672;DHT22;47572;0.00000000;0.00000000;2022-10-19T11:33:54;21.50;66.70
61672;DHT22;47572;0.00000000;0.00000000;2022-10-19T11:36:31;21.40;66.70
61672;DHT22;47572;0.00000000;0.00000000;2022-10-19T11:39:14;21.50;66.80
61672;DHT22;47572;0.00000000;0.00000000;2022-10-19T11:44:41;21.40;66.70
61672;DHT22;47572;0.00000000;0.00000000;2022-10-19T11:55:31;21.50;66.50
61672;DHT22;47572;0.00000000;0.00000000;2022-10-19T11:58:06;21.40;66.50
61672;DHT22;47572;0.00000000;0.00000000;2022-10-19T12:00:58;21.40;66.50
61672;DHT22;47572;0.00000000;0.00000000;2022-10-19T12:11:11;21.50;66.70
61672;DHT22;47572;0.00000000;0.00000000;2022-10-19T12:13:45;21.40;66.70
61672;DHT22;47572;0.00000000;0.00000000;2022-10-19T12:16:12;21.40;66.70
61672;DHT22;47572;0.00000000;0.00000000;2022-10-19T12:21:13;21.30;66.60
61672;DHT22;47572;0.00000000;0.00000000;2022-10-19T12:23:43;21.30;66.60
61672;DHT22;47572;0.00000000;0.00000000;2022-10-19T12:26:10;21.30;66.70
61672;DHT22;47572;0.00000000;0.00000000;2022-10-19T12:28:39;21.30;66.80
61672;DHT22;47572;0.00000000;0.00000000;2022-10-19T12:31:06;21.30;66.70
61672;DHT22;47572;0.00000000;0.00000000;2022-10-19T12:36:12;21.20;66.80
61672;DHT22;47572;0.00000000;0.00000000;2022-10-19T12:41:35;21.20;66.90
61672;DHT22;47572;0.00000000;0.00000000;2022-10-19T12:44:07;21.20;67.00
61672;DHT22;47572;0.00000000;0.00000000;2022-10-19T12:46:42;21.20;67.00
61672;DHT22;47572;0.00000000;0.00000000;2022-10-19T12:51:51;21.20;67.00
61672;DHT22;47572;0.00000000;0.00000000;2022-10-19T12:54:19;21.30;67.00
61672;DHT22;47572;0.00000000;0.00000000;2022-10-19T12:56:47;21.30;67.10
61672;DHT22;47572;0.00000000;0.00000000;2022-10-19T12:59:24;21.20;67.10
61672;DHT22;47572;0.00000000;0.00000000;2022-10-19T13:01:50;21.20;67.20
61672;DHT22;47572;0.00000000;0.00000000;2022-10-19T13:04:17;21.20;67.30
61672;DHT22;47572;0.00000000;0.00000000;2022-10-19T13:06:47;21.20;67.40
61672;DHT22;47572;0.00000000;0.00000000;2022-10-19T13:15:01;21.10;67.50
61672;DHT22;47572;0.00000000;0.00000000;2022-10-19T13:22:49;21.10;67.90
61672;DHT22;47572;0.00000000;0.00000000;2022-10-19T13:27:44;21.10;67.90
61672;DHT22;47572;0.00000000;0.00000000;2022-10-19T13:32:55;21.10;67.90
61672;DHT22;47572;0.00000000;0.00000000;2022-10-19T13:35:22;21.10;68.00
61672;DHT22;47572;0.00000000;0.00000000;2022-10-19T13:40:32;21.00;68.10
61672;DHT22;47572;0.00000000;0.00000000;2022-10-19T13:42:58;21.00;68.10
61672;DHT22;47572;0.00000000;0.00000000;2022-10-19T13:45:24;21.00;68.20
61672;DHT22;47572;0.00000000;0.00000000;2022-10-19T13:47:51;21.00;68.20
61672;DHT22;47572;0.00000000;0.00000000;2022-10-19T13:50:21;21.00;68.20
61672;DHT22;47572;0.00000000;0.00000000;2022-10-19T14:00:50;20.80;68.50
61672;DHT22;47572;0.00000000;0.00000000;2022-10-19T14:06:00;20.90;68.60
61672;DHT22;47572;0.00000000;0.00000000;2022-10-19T14:11:16;20.80;68.60
61672;DHT22;47572;0.00000000;0.00000000;2022-10-19T14:13:43;20.80;68.60
61672;DHT22;47572;0.00000000;0.00000000;2022-10-19T14:16:16;20.80;68.60
61672;DHT22;47572;0.00000000;0.00000000;2022-10-19T14:18:42;20.80;68.70
61672;DHT22;47572;0.00000000;0.00000000;2022-10-19T14:21:08;20.80;68.60
61672;DHT22;47572;0.00000000;0.00000000;2022-10-19T14:23:35;20.80;68.70
61672;DHT22;47572;0.00000000;0.00000000;2022-10-19T14:26:02;20.80;68.70
61672;DHT22;47572;0.00000000;0.00000000;2022-10-19T14:28:29;20.70;68.70
61672;DHT22;47572;0.00000000;0.00000000;2022-10-19T14:33:21;20.70;68.80
61672;DHT22;47572;0.00000000;0.00000000;2022-10-19T14:35:49;20.60;68.90
61672;DHT22;47572;0.00000000;0.00000000;2022-10-19T14:38:32;20.70;69.00
61672;DHT22;47572;0.00000000;0.00000000;2022-10-19T14:41:00;20.60;69.00
61672;DHT22;47572;0.00000000;0.00000000;2022-10-19T14:43:26;20.60;69.10
61672;DHT22;47572;0.00000000;0.00000000;2022-10-19T14:48:30;20.50;69.20
61672;DHT22;47572;0.00000000;0.00000000;2022-10-19T14:50:56;20.50;69.30
61672;DHT22;47572;0.00000000;0.00000000;2022-10-19T14:55:51;20.50;69.40
61672;DHT22;47572;0.00000000;0.00000000;2022-10-19T14:58:19;20.40;69.40
61672;DHT22;47572;0.00000000;0.00000000;2022-10-19T15:00:47;20.50;69.50
61672;DHT22;47572;0.00000000;0.00000000;2022-10-19T15:03:21;20.40;69.50
61672;DHT22;47572;0.00000000;0.00000000;2022-10-19T15:05:49;20.40;69.60
61672;DHT22;47572;0.00000000;0.00000000;2022-10-19T15:08:18;20.40;69.70
61672;DHT22;47572;0.00000000;0.00000000;2022-10-19T15:10:44;20.30;69.70
61672;DHT22;47572;0.00000000;0.00000000;2022-10-19T15:13:27;20.40;69.80
61672;DHT22;47572;0.00000000;0.00000000;2022-10-19T15:15:54;20.40;69.90
61672;DHT22;47572;0.00000000;0.00000000;2022-10-19T15:18:21;20.30;69.80
61672;DHT22;47572;0.00000000;0.00000000;2022-10-19T15:20:47;20.30;69.80
61672;DHT22;47572;0.00000000;0.00000000;2022-10-19T15:25:59;20.30;69.90
61672;DHT22;47572;0.00000000;0.00000000;2022-10-19T15:28:33;20.30;70.00
61672;DHT22;47572;0.00000000;0.00000000;2022-10-19T15:31:00;20.30;70.00
61672;DHT22;47572;0.00000000;0.00000000;2022-10-19T15:33:27;20.30;70.00
61672;DHT22;47572;0.00000000;0.00000000;2022-10-19T15:36:02;20.30;70.00
61672;DHT22;47572;0.00000000;0.00000000;2022-10-19T15:38:28;20.40;70.10
61672;DHT22;47572;0.00000000;0.00000000;2022-10-19T15:41:00;20.30;70.10
61672;DHT22;47572;0.00000000;0.00000000;2022-10-19T15:53:56;20.20;70.20